createdAt,value
2022-10-29T00:01:12.817Z,102051.78
2022-10-29T00:03:41.164Z,102194.69
2022-10-29T00:06:12.971Z,102243.28
2022-10-29T00:08:43.288Z,102280.56
2022-10-29T00:11:14.265Z,102281.53
2022-10-29T00:13:43.721Z,102282.28
2022-10-29T00:16:15.498Z,102187.94
2022-10-29T00:18:44.481Z,102229.75
2022-10-29T00:21:15.459Z,102282.97
2022-10-29T00:23:45.724Z,102226.88
2022-10-29T00:26:14.943Z,102275.63
2022-10-29T00:28:43.644Z,102243.53
2022-10-29T00:31:15.972Z,102216.00
2022-10-29T00:33:44.364Z,102248.69
2022-10-29T00:36:15.875Z,102227.31
2022-10-29T00:38:46.228Z,102259.31
2022-10-29T00:41:17.640Z,102232.47
2022-10-29T00:43:51.331Z,102220.81
2022-10-29T00:46:26.426Z,102259.91
2022-10-29T00:48:57.664Z,102262.31
2022-10-29T00:51:28.456Z,102239.16
2022-10-29T00:54:03.500Z,102268.38
2022-10-29T00:56:36.357Z,102268.31
2022-10-29T00:59:06.713Z,102244.13
2022-10-29T01:01:35.342Z,102262.94
2022-10-29T01:04:05.325Z,102254.81
2022-10-29T01:06:34.932Z,102214.03
2022-10-29T01:09:04.849Z,102256.72
2022-10-29T01:11:48.571Z,102228.13
2022-10-29T01:14:33.856Z,102253.25
2022-10-29T01:17:11.242Z,102245.38
2022-10-29T01:20:15.115Z,102253.25
2022-10-29T01:22:49.532Z,102187.34
2022-10-29T01:25:49.907Z,102250.31
2022-10-29T01:28:34.998Z,102212.97
2022-10-29T01:31:29.216Z,102243.25
2022-10-29T01:34:06.950Z,102236.97
2022-10-29T01:36:43.171Z,102086.63
2022-10-29T01:39:21.962Z,102104.59
2022-10-29T01:41:56.161Z,102193.44
2022-10-29T01:44:36.437Z,102178.31
2022-10-29T01:47:12.423Z,102214.59
2022-10-29T01:49:43.560Z,102211.81
2022-10-29T01:52:16.232Z,102214.66
2022-10-29T01:54:46.751Z,102223.44
2022-10-29T01:57:31.020Z,102177.22
2022-10-29T02:00:09.260Z,102222.50
2022-10-29T02:03:06.262Z,102180.78
2022-10-29T02:05:40.271Z,102215.34
2022-10-29T02:08:21.809Z,102219.78
2022-10-29T02:10:57.485Z,102206.34
2022-10-29T02:13:34.266Z,102195.66
2022-10-29T02:16:06.672Z,102034.75
2022-10-29T02:18:43.314Z,102212.69
2022-10-29T02:21:11.619Z,102155.81
2022-10-29T02:23:40.083Z,102195.84
2022-10-29T02:26:08.580Z,102061.84
2022-10-29T02:28:36.929Z,102066.97
2022-10-29T02:31:05.650Z,102058.06
2022-10-29T02:33:33.940Z,102185.34
2022-10-29T02:36:03.798Z,102172.19
2022-10-29T02:38:32.061Z,102108.16
2022-10-29T02:41:00.283Z,102167.72
2022-10-29T02:43:28.507Z,102166.09
2022-10-29T02:46:13.724Z,102162.56
2022-10-29T02:48:42.234Z,102165.22
2022-10-29T02:51:12.464Z,102128.75
2022-10-29T02:53:40.806Z,102140.16
2022-10-29T02:56:10.605Z,102164.38
2022-10-29T02:58:38.982Z,102127.09
2022-10-29T03:01:08.100Z,102149.38
2022-10-29T03:03:36.960Z,102085.22
2022-10-29T03:06:05.936Z,102108.16
2022-10-29T03:08:35.774Z,102145.81
2022-10-29T03:11:04.118Z,102135.06
2022-10-29T03:13:32.472Z,102146.72
2022-10-29T03:16:01.048Z,102163.59
2022-10-29T03:18:29.495Z,102156.34
2022-10-29T03:20:58.085Z,102151.84
2022-10-29T03:23:26.373Z,102166.72
2022-10-29T03:25:57.409Z,102171.09
2022-10-29T03:28:28.097Z,102114.56
2022-10-29T03:30:56.688Z,102172.38
2022-10-29T03:33:26.672Z,102146.47
2022-10-29T03:35:59.555Z,102093.25
2022-10-29T03:38:28.609Z,102140.22
2022-10-29T03:40:58.610Z,102162.44
2022-10-29T03:43:27.246Z,102159.00
2022-10-29T03:45:58.055Z,102107.50
2022-10-29T03:48:27.337Z,102148.50
2022-10-29T03:50:56.834Z,102099.69
2022-10-29T03:53:25.815Z,102133.56
2022-10-29T03:55:54.964Z,101995.78
2022-10-29T03:58:25.098Z,102091.72
2022-10-29T04:00:58.531Z,102086.44
2022-10-29T04:03:28.404Z,102018.19
2022-10-29T04:05:59.167Z,102096.41
2022-10-29T04:08:27.555Z,102132.75
2022-10-29T04:10:55.881Z,102077.72
2022-10-29T04:13:25.589Z,102117.81
2022-10-29T04:15:55.791Z,102066.41
2022-10-29T04:18:24.982Z,102069.97
2022-10-29T04:29:20.613Z,102101.41
2022-10-29T04:31:49.103Z,102088.03
2022-10-29T04:34:17.510Z,102104.78
2022-10-29T04:36:45.865Z,102092.53
2022-10-29T04:39:15.465Z,102106.84
2022-10-29T04:41:45.517Z,102074.22
2022-10-29T04:44:13.834Z,102019.16
2022-10-29T04:46:43.524Z,102036.00
2022-10-29T04:49:11.857Z,102093.81
2022-10-29T04:51:40.638Z,102102.47
2022-10-29T04:54:09.147Z,102074.25
2022-10-29T04:56:37.442Z,102089.56
2022-10-29T04:59:05.687Z,102013.34
2022-10-29T05:04:09.279Z,101932.63
2022-10-29T05:06:37.733Z,102050.72
2022-10-29T05:09:06.583Z,102059.59
2022-10-29T05:11:34.889Z,102011.75
2022-10-29T05:14:03.391Z,102090.72
2022-10-29T05:16:32.744Z,102050.69
2022-10-29T05:19:01.215Z,102011.75
2022-10-29T05:21:31.139Z,102070.41
2022-10-29T05:23:59.744Z,101903.66
2022-10-29T05:26:28.087Z,101992.50
2022-10-29T05:28:56.521Z,102054.81
2022-10-29T05:31:25.049Z,102052.25
2022-10-29T05:33:55.575Z,101978.63
2022-10-29T05:36:24.663Z,102000.78
2022-10-29T05:38:54.324Z,102048.78
2022-10-29T05:41:22.566Z,102049.69
2022-10-29T05:43:51.584Z,102041.69
2022-10-29T05:46:20.063Z,102000.69
2022-10-29T05:48:48.343Z,102053.16
2022-10-29T05:51:16.844Z,102038.25
2022-10-29T05:53:45.157Z,102055.03
2022-10-29T05:56:15.101Z,102027.56
2022-10-29T05:58:43.521Z,101964.59
2022-10-29T06:01:12.420Z,102036.44
2022-10-29T06:03:40.946Z,102049.44
2022-10-29T06:06:09.645Z,102054.81
2022-10-29T06:08:38.068Z,102062.84
2022-10-29T06:11:06.765Z,102056.59
2022-10-29T06:13:36.556Z,102014.06
2022-10-29T06:16:05.309Z,102069.22
2022-10-29T06:18:35.269Z,102022.31
2022-10-29T06:21:03.570Z,102024.84
2022-10-29T06:23:32.027Z,102041.09
2022-10-29T06:26:01.791Z,102027.97
2022-10-29T06:28:33.609Z,101997.91
2022-10-29T06:31:04.701Z,102032.66
2022-10-29T06:33:33.028Z,101986.53
2022-10-29T06:36:01.857Z,102042.41
2022-10-29T06:38:30.251Z,102052.16
2022-10-29T06:41:01.408Z,102053.88
2022-10-29T06:43:29.745Z,102041.53
2022-10-29T06:45:58.026Z,102035.44
2022-10-29T06:48:27.744Z,102049.72
2022-10-29T06:50:56.054Z,102048.00
2022-10-29T06:53:25.057Z,102007.13
2022-10-29T06:55:53.481Z,102063.97
2022-10-29T06:58:22.679Z,101943.41
2022-10-29T07:00:51.094Z,101989.47
2022-10-29T07:03:21.240Z,102045.31
2022-10-29T07:05:57.423Z,102043.72
2022-10-29T07:08:25.988Z,102023.28
2022-10-29T07:10:55.414Z,102003.00
2022-10-29T07:13:24.277Z,102043.06
2022-10-29T07:15:52.673Z,101898.72
2022-10-29T07:18:20.978Z,102044.16
2022-10-29T07:20:50.670Z,102040.66
2022-10-29T07:23:19.019Z,102041.47
2022-10-29T07:25:47.413Z,102035.38
2022-10-29T07:28:18.136Z,101975.09
2022-10-29T07:30:48.346Z,101938.03
2022-10-29T07:33:17.183Z,101991.41
2022-10-29T07:35:46.360Z,102016.13
2022-10-29T07:38:16.236Z,102040.16
2022-10-29T07:40:50.511Z,102008.28
2022-10-29T07:43:20.624Z,102003.16
2022-10-29T07:45:51.074Z,101988.13
2022-10-29T07:48:20.796Z,102021.91
2022-10-29T07:50:49.967Z,101999.06
2022-10-29T07:53:19.881Z,101944.31
2022-10-29T07:55:54.823Z,101878.97
2022-10-29T07:58:24.323Z,101998.69
2022-10-29T08:00:52.978Z,102019.16
2022-10-29T08:03:21.550Z,101974.97
2022-10-29T08:05:56.413Z,101998.03
2022-10-29T08:08:27.268Z,102020.31
2022-10-29T08:11:01.195Z,102022.13
2022-10-29T08:13:30.196Z,102028.31
2022-10-29T08:15:59.136Z,101962.84
2022-10-29T08:18:27.580Z,101966.41
2022-10-29T08:20:56.325Z,102029.22
2022-10-29T08:23:26.168Z,102032.81
2022-10-29T08:25:54.472Z,101984.19
2022-10-29T08:28:25.679Z,102032.00
2022-10-29T08:30:54.374Z,102023.22
2022-10-29T08:33:22.775Z,102002.91
2022-10-29T08:35:51.516Z,102021.50
2022-10-29T08:38:19.949Z,101991.44
2022-10-29T08:41:06.664Z,101980.84
2022-10-29T08:44:04.572Z,102019.69
2022-10-29T08:46:44.603Z,102008.19
2022-10-29T08:49:19.490Z,101933.06
2022-10-29T08:51:56.882Z,102004.66
2022-10-29T08:54:31.352Z,101907.41
2022-10-29T08:57:08.630Z,101981.59
2022-10-29T08:59:44.775Z,101987.78
2022-10-29T09:02:18.211Z,101983.31
2022-10-29T09:04:46.788Z,101971.78
2022-10-29T09:07:33.392Z,101939.09
2022-10-29T09:10:12.492Z,101985.84
2022-10-29T09:13:08.886Z,101947.00
2022-10-29T09:15:57.718Z,101969.06
2022-10-29T09:18:48.534Z,101966.41
2022-10-29T09:21:30.592Z,101961.09
2022-10-29T09:24:12.710Z,101968.09
2022-10-29T09:26:57.082Z,101892.13
2022-10-29T09:30:00.793Z,101932.75
2022-10-29T09:32:34.979Z,101947.78
2022-10-29T09:35:08.052Z,101944.28
2022-10-29T09:37:45.113Z,101873.59
2022-10-29T09:40:32.049Z,101945.91
2022-10-29T09:43:06.306Z,101922.94
2022-10-29T09:45:47.164Z,101933.50
2022-10-29T09:48:25.464Z,101903.44
2022-10-29T09:51:04.444Z,101959.00
2022-10-29T09:53:32.968Z,101890.03
2022-10-29T09:56:01.307Z,101897.75
2022-10-29T09:58:29.946Z,101925.03
2022-10-29T10:00:59.723Z,101934.56
2022-10-29T10:03:35.250Z,101899.06
2022-10-29T10:06:05.944Z,101894.44
2022-10-29T10:08:36.719Z,101881.88
2022-10-29T10:11:08.002Z,101912.41
2022-10-29T10:13:40.259Z,101901.47
2022-10-29T10:16:10.727Z,101892.00
2022-10-29T10:21:15.420Z,101857.16
2022-10-29T10:23:47.519Z,101874.53
2022-10-29T10:26:35.257Z,101844.31
2022-10-29T10:29:12.927Z,101865.50
2022-10-29T10:31:44.442Z,101838.88
2022-10-29T10:34:19.755Z,101855.50
2022-10-29T10:36:53.317Z,101815.97
2022-10-29T10:39:31.188Z,101871.47
2022-10-29T10:42:03.602Z,101866.06
2022-10-29T10:44:32.632Z,101846.78
2022-10-29T10:47:10.966Z,101832.63
2022-10-29T10:49:40.588Z,101849.84
2022-10-29T10:52:20.653Z,101774.25
2022-10-29T10:54:59.406Z,101838.28
2022-10-29T10:57:33.431Z,101856.34
2022-10-29T11:00:07.610Z,101859.06
2022-10-29T11:02:49.194Z,101858.13
2022-10-29T11:05:21.025Z,101802.88
2022-10-29T11:08:02.507Z,101812.44
2022-10-29T11:10:38.250Z,101848.06
2022-10-29T11:13:15.102Z,101834.03
2022-10-29T11:15:52.158Z,101835.34
2022-10-29T11:18:30.215Z,101824.69
2022-10-29T11:21:08.011Z,101793.66
2022-10-29T11:23:48.954Z,101806.25
2022-10-29T11:26:26.518Z,101810.19
2022-10-29T11:29:03.716Z,101791.72
2022-10-29T11:31:42.633Z,101790.94
2022-10-29T11:34:19.719Z,101775.75
2022-10-29T11:36:56.388Z,101805.50
2022-10-29T11:39:32.069Z,101799.06
2022-10-29T11:42:02.541Z,101781.66
2022-10-29T11:44:38.366Z,101775.63
2022-10-29T11:47:28.160Z,101784.97
2022-10-29T11:50:16.280Z,101785.06
2022-10-29T11:52:53.626Z,101774.00
2022-10-29T11:55:34.579Z,101762.13
2022-10-29T11:58:11.941Z,101729.25
2022-10-29T12:00:59.635Z,101739.81
2022-10-29T12:03:55.720Z,101754.00
2022-10-29T12:06:34.029Z,101741.31
2022-10-29T12:09:26.084Z,101720.00
2022-10-29T12:12:05.269Z,101713.84
2022-10-29T12:14:40.178Z,101751.47
2022-10-29T12:17:14.901Z,101746.34
2022-10-29T12:19:55.927Z,101745.63
2022-10-29T12:22:38.427Z,101727.66
2022-10-29T12:25:29.815Z,101689.78
2022-10-29T12:28:11.755Z,101734.84
2022-10-29T12:30:47.827Z,101738.59
2022-10-29T12:33:24.548Z,101722.41
2022-10-29T12:38:40.591Z,101679.78
2022-10-29T12:41:20.336Z,101708.38
2022-10-29T12:43:49.840Z,101701.47
2022-10-29T12:46:32.941Z,101665.03
2022-10-29T12:49:10.525Z,101600.00
2022-10-29T12:51:51.118Z,101661.00
2022-10-29T12:54:38.224Z,101682.69
2022-10-29T12:57:24.475Z,101692.81
2022-10-29T12:59:52.748Z,101695.94
2022-10-29T13:02:31.277Z,101663.88
2022-10-29T13:05:40.218Z,101691.88
2022-10-29T13:08:36.167Z,101688.38
2022-10-29T13:11:25.287Z,101670.34
2022-10-29T13:14:01.345Z,101679.22
2022-10-29T13:16:32.037Z,101698.34
2022-10-29T13:19:38.980Z,101669.84
2022-10-29T13:22:54.141Z,101681.81
2022-10-29T13:25:49.818Z,101695.56
2022-10-29T13:28:52.833Z,101646.69
2022-10-29T13:31:50.267Z,101656.53
2022-10-29T13:34:59.484Z,101681.09
2022-10-29T13:37:51.661Z,101654.81
2022-10-29T13:41:17.571Z,101675.75
2022-10-29T13:43:59.817Z,101676.16
2022-10-29T13:46:47.547Z,101636.88
2022-10-29T13:49:23.226Z,101652.41
2022-10-29T13:52:02.353Z,101662.81
2022-10-29T13:54:39.449Z,101654.41
2022-10-29T13:57:19.867Z,101670.75
2022-10-29T13:59:57.995Z,101650.78
2022-10-29T14:02:36.722Z,101662.13
2022-10-29T14:05:17.140Z,101655.59
2022-10-29T14:07:56.014Z,101658.34
2022-10-29T14:13:18.060Z,101652.31
2022-10-29T14:16:03.263Z,101656.91
2022-10-29T14:18:34.429Z,101658.75
2022-10-29T14:21:06.742Z,101650.34
2022-10-29T14:23:35.356Z,101633.75
2022-10-29T14:26:04.197Z,101661.06
2022-10-29T14:28:34.568Z,101664.81
2022-10-29T14:31:13.471Z,101634.91
2022-10-29T14:33:43.344Z,101659.59
2022-10-29T14:36:22.763Z,101668.34
2022-10-29T14:38:55.233Z,101636.97
2022-10-29T14:41:25.337Z,101635.22
2022-10-29T14:44:03.685Z,101644.97
2022-10-29T14:46:36.228Z,101610.19
2022-10-29T14:49:16.373Z,101645.50
2022-10-29T14:51:52.830Z,101618.38
2022-10-29T14:54:27.478Z,101595.75
2022-10-29T14:57:00.692Z,101575.84
2022-10-29T14:59:32.546Z,101623.38
2022-10-29T15:02:32.111Z,101584.22
2022-10-29T15:05:04.610Z,101621.81
2022-10-29T15:07:37.215Z,101558.84
2022-10-29T15:10:22.194Z,101589.59
2022-10-29T15:12:52.501Z,101593.59
2022-10-29T15:15:28.230Z,101611.47
2022-10-29T15:18:04.366Z,101601.22
2022-10-29T15:20:44.766Z,101605.69
2022-10-29T15:23:21.712Z,101575.25
2022-10-29T15:25:53.436Z,101602.66
2022-10-29T15:28:26.885Z,101584.47
2022-10-29T15:30:55.276Z,101589.66
2022-10-29T15:33:29.596Z,101565.34
2022-10-29T15:36:02.208Z,101572.00
2022-10-29T15:39:26.753Z,101593.97
2022-10-29T15:41:59.199Z,101594.06
2022-10-29T15:44:39.228Z,101597.94
2022-10-29T15:47:27.486Z,101568.19
2022-10-29T15:49:58.196Z,101569.34
2022-10-29T15:52:32.849Z,101593.63
2022-10-29T15:55:02.345Z,101589.31
2022-10-29T15:57:31.466Z,101590.28
2022-10-29T16:00:06.624Z,101559.66
2022-10-29T16:02:35.010Z,101582.56
2022-10-29T16:05:05.128Z,101585.41
2022-10-29T16:07:33.949Z,101580.19
2022-10-29T16:10:02.753Z,101561.84
2022-10-29T16:12:31.886Z,101542.63
2022-10-29T16:15:00.235Z,101573.41
2022-10-29T16:17:30.216Z,101535.69
2022-10-29T16:20:01.649Z,101562.09
2022-10-29T16:22:31.812Z,101546.72
2022-10-29T16:25:00.301Z,101552.63
2022-10-29T16:27:28.611Z,101560.69
2022-10-29T16:29:57.040Z,101560.81
2022-10-29T16:32:26.376Z,101561.81
2022-10-29T16:34:54.904Z,101559.31
2022-10-29T16:37:23.445Z,101519.84
2022-10-29T16:39:54.125Z,101536.63
2022-10-29T16:42:33.334Z,101526.31
2022-10-29T16:45:01.881Z,101546.47
2022-10-29T16:47:30.475Z,101547.56
2022-10-29T16:50:00.381Z,101557.34
2022-10-29T16:52:29.801Z,101523.19
2022-10-29T16:54:59.770Z,101561.06
2022-10-29T16:57:29.449Z,101550.38
2022-10-29T16:59:57.932Z,101551.38
2022-10-29T17:02:26.452Z,101518.91
2022-10-29T17:04:54.815Z,101542.69
2022-10-29T17:07:23.879Z,101499.75
2022-10-29T17:09:52.395Z,101542.03
2022-10-29T17:12:23.420Z,101511.44
2022-10-29T17:14:52.115Z,101564.31
2022-10-29T17:17:20.453Z,101546.16
2022-10-29T17:19:48.929Z,101604.41
2022-10-29T17:22:17.668Z,101563.94
2022-10-29T17:24:46.514Z,101577.22
2022-10-29T17:27:15.380Z,101597.56
2022-10-29T17:29:45.022Z,101619.59
2022-10-29T17:32:13.417Z,101617.91
2022-10-29T17:34:41.881Z,101609.22
2022-10-29T17:37:11.412Z,101630.66
2022-10-29T17:39:40.110Z,101588.34
2022-10-29T17:42:08.566Z,101596.47
2022-10-29T17:44:36.926Z,101644.00
2022-10-29T17:47:06.996Z,101649.28
2022-10-29T17:49:35.413Z,101654.59
2022-10-29T17:52:04.456Z,101656.56
2022-10-29T17:54:35.190Z,101627.47
2022-10-29T17:57:03.830Z,101617.88
2022-10-29T17:59:32.371Z,101626.72
2022-10-29T18:02:00.786Z,101648.72
2022-10-29T18:04:30.718Z,101605.56
2022-10-29T18:06:59.576Z,101646.88
2022-10-29T18:09:27.967Z,101648.72
2022-10-29T18:11:56.505Z,101636.38
2022-10-29T18:14:25.107Z,101631.06
2022-10-29T18:16:53.520Z,101647.00
2022-10-29T18:19:21.835Z,101632.16
2022-10-29T18:21:51.584Z,101656.78
2022-10-29T18:24:22.320Z,101652.38
2022-10-29T18:26:51.241Z,101622.41
2022-10-29T18:29:19.671Z,101596.00
2022-10-29T18:31:48.035Z,101608.28
2022-10-29T18:34:17.071Z,101643.59
2022-10-29T18:36:47.499Z,101639.19
2022-10-29T18:39:17.264Z,101623.25
2022-10-29T18:41:45.728Z,101632.09
2022-10-29T18:44:14.056Z,101623.28
2022-10-29T18:46:42.430Z,101582.91
2022-10-29T18:49:13.085Z,101641.91
2022-10-29T18:51:42.806Z,101630.41
2022-10-29T18:54:14.833Z,101598.72
2022-10-29T18:56:44.636Z,101584.78
2022-10-29T18:59:13.911Z,101627.03
2022-10-29T19:01:42.587Z,101632.34
2022-10-29T19:04:15.599Z,101614.78
2022-10-29T19:06:44.502Z,101656.22
2022-10-29T19:09:13.456Z,101651.84
2022-10-29T19:11:42.211Z,101651.94
2022-10-29T19:14:15.018Z,101647.47
2022-10-29T19:16:43.712Z,101625.56
2022-10-29T19:19:17.052Z,101653.81
2022-10-29T19:21:48.161Z,101655.59
2022-10-29T19:24:17.118Z,101652.94
2022-10-29T19:26:45.907Z,101655.59
2022-10-29T19:29:16.739Z,101659.13
2022-10-29T19:31:47.552Z,101659.13
2022-10-29T19:34:16.128Z,101654.75
2022-10-29T19:36:44.543Z,101650.41
2022-10-29T19:39:12.930Z,101635.47
2022-10-29T19:41:41.459Z,101635.47
2022-10-29T19:44:10.080Z,101620.47
2022-10-29T19:46:40.266Z,101662.78
2022-10-29T19:49:08.831Z,101616.97
2022-10-29T19:51:37.240Z,101672.53
2022-10-29T19:54:07.249Z,101672.53
2022-10-29T19:56:35.674Z,101655.78
2022-10-29T19:59:05.184Z,101675.16
2022-10-29T20:01:33.918Z,101639.91
2022-10-29T20:04:04.500Z,101587.00
2022-10-29T20:06:32.936Z,101683.09
2022-10-29T20:09:01.569Z,101683.97
2022-10-29T20:11:30.277Z,101647.81
2022-10-29T20:13:59.217Z,101638.16
2022-10-29T20:16:27.738Z,101683.94
2022-10-29T20:18:56.557Z,101639.00
2022-10-29T20:21:26.465Z,101643.41
2022-10-29T20:23:56.587Z,101689.28
2022-10-29T20:26:24.936Z,101598.47
2022-10-29T20:28:53.309Z,101641.66
2022-10-29T20:31:32.188Z,101652.28
2022-10-29T20:34:02.398Z,101678.72
2022-10-29T20:36:34.287Z,101673.41
2022-10-29T20:39:02.876Z,101660.25
2022-10-29T20:41:31.965Z,101654.06
2022-10-29T20:44:02.182Z,101662.00
2022-10-29T20:46:30.951Z,101696.44
2022-10-29T20:48:59.820Z,101691.97
2022-10-29T20:51:28.890Z,101708.81
2022-10-29T20:53:58.965Z,101694.66
2022-10-29T20:56:28.664Z,101674.34
2022-10-29T20:58:56.971Z,101693.78
2022-10-29T21:01:26.204Z,101699.94
2022-10-29T21:03:54.696Z,101696.41
2022-10-29T21:06:23.978Z,101716.69
2022-10-29T21:08:53.657Z,101700.81
2022-10-29T21:11:24.829Z,101677.00
2022-10-29T21:13:53.188Z,101720.22
2022-10-29T21:16:24.685Z,101716.69
2022-10-29T21:18:55.498Z,101694.59
2022-10-29T21:21:24.270Z,101718.47
2022-10-29T21:23:52.757Z,101665.47
2022-10-29T21:26:24.887Z,101720.19
2022-10-29T21:28:54.612Z,101729.03
2022-10-29T21:31:25.135Z,101727.28
2022-10-29T21:33:54.538Z,101724.63
2022-10-29T21:36:23.816Z,101697.25
2022-10-29T21:38:52.262Z,101682.22
2022-10-29T21:41:22.056Z,101712.25
2022-10-29T21:43:50.477Z,101739.59
2022-10-29T21:46:18.931Z,101742.25
2022-10-29T21:48:47.319Z,101728.97
2022-10-29T21:51:17.219Z,101704.22
2022-10-29T21:53:45.814Z,101743.09
2022-10-29T21:56:15.996Z,101748.38
2022-10-29T21:58:45.868Z,101750.13
2022-10-29T22:01:16.243Z,101743.94
2022-10-29T22:03:47.126Z,101742.16
2022-10-29T22:06:17.794Z,101705.06
2022-10-29T22:08:47.403Z,101734.22
2022-10-29T22:11:16.686Z,101717.41
2022-10-29T22:13:46.273Z,101707.59
2022-10-29T22:16:14.835Z,101745.59
2022-10-29T22:18:43.267Z,101746.50
2022-10-29T22:21:14.516Z,101735.00
2022-10-29T22:23:44.765Z,101746.47
2022-10-29T22:26:13.738Z,101725.34
2022-10-29T22:28:42.304Z,101725.25
2022-10-29T22:31:12.656Z,101734.16
2022-10-29T22:33:41.338Z,101720.03
2022-10-29T22:36:13.009Z,101724.38
2022-10-29T22:38:41.753Z,101755.31
2022-10-29T22:41:15.437Z,101737.59
2022-10-29T22:43:44.933Z,101717.22
2022-10-29T22:46:17.750Z,101747.22
2022-10-29T22:48:46.586Z,101738.38
2022-10-29T22:51:17.498Z,101716.28
2022-10-29T22:53:47.123Z,101751.56
2022-10-29T22:56:16.727Z,101772.66
2022-10-29T22:58:45.258Z,101767.38
2022-10-29T23:01:17.548Z,101768.31
2022-10-29T23:03:46.269Z,101739.06
2022-10-29T23:06:16.965Z,101711.78
2022-10-29T23:08:46.042Z,101731.19
2022-10-29T23:11:19.602Z,101750.50
2022-10-29T23:13:49.364Z,101747.00
2022-10-29T23:16:19.207Z,101752.28
2022-10-29T23:18:50.450Z,101765.56
2022-10-29T23:21:19.816Z,101756.72
2022-10-29T23:23:49.740Z,101766.38
2022-10-29T23:26:19.091Z,101702.78
2022-10-29T23:28:48.887Z,101763.72
2022-10-29T23:31:21.734Z,101740.69
2022-10-29T23:33:52.495Z,101739.69
2022-10-29T23:36:23.040Z,101772.44
2022-10-29T23:38:56.784Z,101771.59
2022-10-29T23:41:25.529Z,101758.28
2022-10-29T23:43:53.945Z,101725.59
2022-10-29T23:46:24.153Z,101751.25
2022-10-29T23:48:52.491Z,101760.94
2022-10-29T23:51:21.096Z,101772.34
2022-10-29T23:53:53.145Z,101721.16
2022-10-29T23:56:25.480Z,101776.75
2022-10-29T23:58:53.893Z,101746.72
